sensor_id;sensor_type;location;lat;lon;timestamp;P1;durP1;ratioP1;P2;durP2;ratioP2
4214;SDS011;2121;48.062;7.850;2024-03-29T00:00:59;2.37;;;1.70;;
4214;SDS011;2121;48.062;7.850;2024-03-29T00:03:27;2.30;;;1.83;;
4214;SDS011;2121;48.062;7.850;2024-03-29T00:05:52;2.00;;;1.80;;
4214;SDS011;2121;48.062;7.850;2024-03-29T00:08:18;4.60;;;1.53;;
4214;SDS011;2121;48.062;7.850;2024-03-29T00:10:46;1.40;;;1.30;;
4214;SDS011;2121;48.062;7.850;2024-03-29T00:13:12;1.63;;;1.53;;
4214;SDS011;2121;48.062;7.850;2024-03-29T00:15:38;3.00;;;1.33;;
4214;SDS011;2121;48.062;7.850;2024-03-29T00:18:04;1.43;;;1.33;;
4214;SDS011;2121;48.062;7.850;2024-03-29T00:20:30;2.40;;;1.50;;
4214;SDS011;2121;48.062;7.850;2024-03-29T00:22:56;3.43;;;1.47;;
4214;SDS011;2121;48.062;7.850;2024-03-29T00:25:22;1.57;;;1.57;;
4214;SDS011;2121;48.062;7.850;2024-03-29T00:27:48;2.47;;;1.90;;
4214;SDS011;2121;48.062;7.850;2024-03-29T00:30:13;2.10;;;1.63;;
4214;SDS011;2121;48.062;7.850;2024-03-29T00:32:39;1.20;;;1.10;;
4214;SDS011;2121;48.062;7.850;2024-03-29T00:35:05;5.63;;;1.73;;
4214;SDS011;2121;48.062;7.850;2024-03-29T00:37:31;1.73;;;1.20;;
4214;SDS011;2121;48.062;7.850;2024-03-29T00:39:57;1.33;;;1.23;;
4214;SDS011;2121;48.062;7.850;2024-03-29T00:42:23;4.87;;;3.47;;
4214;SDS011;2121;48.062;7.850;2024-03-29T00:44:49;1.57;;;1.20;;
4214;SDS011;2121;48.062;7.850;2024-03-29T00:47:15;1.43;;;1.20;;
4214;SDS011;2121;48.062;7.850;2024-03-29T00:49:41;1.70;;;1.30;;
4214;SDS011;2121;48.062;7.850;2024-03-29T00:52:07;1.93;;;1.20;;
4214;SDS011;2121;48.062;7.850;2024-03-29T00:54:33;1.63;;;1.10;;
4214;SDS011;2121;48.062;7.850;2024-03-29T00:56:58;1.37;;;1.10;;
4214;SDS011;2121;48.062;7.850;2024-03-29T00:59:24;1.20;;;1.10;;
4214;SDS011;2121;48.062;7.850;2024-03-29T01:01:50;1.17;;;1.10;;
4214;SDS011;2121;48.062;7.850;2024-03-29T01:04:16;2.30;;;1.43;;
4214;SDS011;2121;48.062;7.850;2024-03-29T01:06:42;2.40;;;2.20;;
4214;SDS011;2121;48.062;7.850;2024-03-29T01:09:08;3.63;;;1.83;;
4214;SDS011;2121;48.062;7.850;2024-03-29T01:11:38;1.67;;;1.50;;
4214;SDS011;2121;48.062;7.850;2024-03-29T01:14:05;1.97;;;1.43;;
4214;SDS011;2121;48.062;7.850;2024-03-29T01:16:31;1.20;;;1.20;;
4214;SDS011;2121;48.062;7.850;2024-03-29T01:18:58;1.50;;;1.40;;
4214;SDS011;2121;48.062;7.850;2024-03-29T01:21:24;1.80;;;1.70;;
4214;SDS011;2121;48.062;7.850;2024-03-29T01:23:52;1.70;;;1.60;;
4214;SDS011;2121;48.062;7.850;2024-03-29T01:26:18;1.40;;;1.30;;
4214;SDS011;2121;48.062;7.850;2024-03-29T01:28:45;1.50;;;1.40;;
4214;SDS011;2121;48.062;7.850;2024-03-29T01:31:11;1.67;;;1.30;;
4214;SDS011;2121;48.062;7.850;2024-03-29T01:33:37;2.73;;;1.80;;
4214;SDS011;2121;48.062;7.850;2024-03-29T01:36:06;2.20;;;1.73;;
4214;SDS011;2121;48.062;7.850;2024-03-29T01:38:32;1.60;;;1.50;;
4214;SDS011;2121;48.062;7.850;2024-03-29T01:40:58;1.40;;;1.33;;
4214;SDS011;2121;48.062;7.850;2024-03-29T01:43:24;1.70;;;1.60;;
4214;SDS011;2121;48.062;7.850;2024-03-29T01:45:53;1.60;;;1.47;;
4214;SDS011;2121;48.062;7.850;2024-03-29T01:48:21;1.70;;;1.60;;
4214;SDS011;2121;48.062;7.850;2024-03-29T01:50:49;1.40;;;1.30;;
4214;SDS011;2121;48.062;7.850;2024-03-29T01:53:16;8.27;;;1.50;;
4214;SDS011;2121;48.062;7.850;2024-03-29T01:55:47;2.03;;;1.60;;
4214;SDS011;2121;48.062;7.850;2024-03-29T01:58:13;3.30;;;1.50;;
4214;SDS011;2121;48.062;7.850;2024-03-29T02:00:42;1.23;;;1.23;;
4214;SDS011;2121;48.062;7.850;2024-03-29T02:03:19;1.50;;;1.40;;
4214;SDS011;2121;48.062;7.850;2024-03-29T02:05:49;1.93;;;1.03;;
4214;SDS011;2121;48.062;7.850;2024-03-29T02:08:15;4.33;;;1.40;;
4214;SDS011;2121;48.062;7.850;2024-03-29T02:10:42;3.23;;;1.23;;
4214;SDS011;2121;48.062;7.850;2024-03-29T02:13:09;1.60;;;1.50;;
4214;SDS011;2121;48.062;7.850;2024-03-29T02:15:35;1.70;;;1.60;;
4214;SDS011;2121;48.062;7.850;2024-03-29T02:18:00;1.53;;;1.27;;
4214;SDS011;2121;48.062;7.850;2024-03-29T02:20:26;1.70;;;1.60;;
4214;SDS011;2121;48.062;7.850;2024-03-29T02:25:37;1.87;;;1.77;;
4214;SDS011;2121;48.062;7.850;2024-03-29T02:28:03;2.67;;;1.47;;
4214;SDS011;2121;48.062;7.850;2024-03-29T02:30:30;2.60;;;1.50;;
4214;SDS011;2121;48.062;7.850;2024-03-29T02:32:57;1.97;;;1.77;;
4214;SDS011;2121;48.062;7.850;2024-03-29T02:35:24;1.73;;;1.50;;
4214;SDS011;2121;48.062;7.850;2024-03-29T02:37:50;2.10;;;1.50;;
4214;SDS011;2121;48.062;7.850;2024-03-29T02:40:16;1.77;;;1.40;;
4214;SDS011;2121;48.062;7.850;2024-03-29T02:42:41;1.50;;;1.40;;
4214;SDS011;2121;48.062;7.850;2024-03-29T02:45:07;3.23;;;1.50;;
4214;SDS011;2121;48.062;7.850;2024-03-29T02:47:34;1.70;;;1.60;;
4214;SDS011;2121;48.062;7.850;2024-03-29T02:49:59;1.20;;;1.20;;
4214;SDS011;2121;48.062;7.850;2024-03-29T02:52:25;1.63;;;1.53;;
4214;SDS011;2121;48.062;7.850;2024-03-29T02:54:51;1.80;;;1.67;;
4214;SDS011;2121;48.062;7.850;2024-03-29T02:57:16;1.70;;;1.60;;
4214;SDS011;2121;48.062;7.850;2024-03-29T02:59:42;1.53;;;1.43;;
4214;SDS011;2121;48.062;7.850;2024-03-29T03:02:08;2.30;;;1.97;;
4214;SDS011;2121;48.062;7.850;2024-03-29T03:04:34;2.60;;;1.87;;
4214;SDS011;2121;48.062;7.850;2024-03-29T03:06:59;1.60;;;1.50;;
4214;SDS011;2121;48.062;7.850;2024-03-29T03:09:45;2.17;;;1.70;;
4214;SDS011;2121;48.062;7.850;2024-03-29T03:12:29;1.53;;;1.43;;
4214;SDS011;2121;48.062;7.850;2024-03-29T03:14:56;1.80;;;1.70;;
4214;SDS011;2121;48.062;7.850;2024-03-29T03:17:23;3.97;;;2.33;;
4214;SDS011;2121;48.062;7.850;2024-03-29T03:19:51;2.93;;;2.00;;
4214;SDS011;2121;48.062;7.850;2024-03-29T03:22:17;2.80;;;2.13;;
4214;SDS011;2121;48.062;7.850;2024-03-29T03:24:43;1.77;;;1.63;;
4214;SDS011;2121;48.062;7.850;2024-03-29T03:27:09;1.83;;;1.73;;
4214;SDS011;2121;48.062;7.850;2024-03-29T03:29:35;2.37;;;1.50;;
4214;SDS011;2121;48.062;7.850;2024-03-29T03:32:01;1.70;;;1.60;;
4214;SDS011;2121;48.062;7.850;2024-03-29T03:34:26;1.50;;;1.40;;
4214;SDS011;2121;48.062;7.850;2024-03-29T03:36:52;2.20;;;1.73;;
4214;SDS011;2121;48.062;7.850;2024-03-29T03:39:18;1.90;;;1.80;;
4214;SDS011;2121;48.062;7.850;2024-03-29T03:41:44;1.90;;;1.80;;
4214;SDS011;2121;48.062;7.850;2024-03-29T03:44:09;1.73;;;1.60;;
4214;SDS011;2121;48.062;7.850;2024-03-29T03:46:35;1.63;;;1.53;;
4214;SDS011;2121;48.062;7.850;2024-03-29T03:49:00;2.23;;;2.00;;
4214;SDS011;2121;48.062;7.850;2024-03-29T03:51:26;1.63;;;1.53;;
4214;SDS011;2121;48.062;7.850;2024-03-29T03:53:52;2.10;;;1.90;;
4214;SDS011;2121;48.062;7.850;2024-03-29T03:56:17;2.10;;;1.90;;
4214;SDS011;2121;48.062;7.850;2024-03-29T03:58:44;2.93;;;1.90;;
4214;SDS011;2121;48.062;7.850;2024-03-29T04:01:10;2.00;;;1.70;;
4214;SDS011;2121;48.062;7.850;2024-03-29T04:03:35;2.27;;;2.07;;
4214;SDS011;2121;48.062;7.850;2024-03-29T04:06:04;2.33;;;1.60;;
4214;SDS011;2121;48.062;7.850;2024-03-29T04:08:31;4.40;;;1.47;;
4214;SDS011;2121;48.062;7.850;2024-03-29T04:10:57;2.30;;;1.93;;
4214;SDS011;2121;48.062;7.850;2024-03-29T04:13:26;1.90;;;1.80;;
4214;SDS011;2121;48.062;7.850;2024-03-29T04:15:52;1.80;;;1.70;;
4214;SDS011;2121;48.062;7.850;2024-03-29T04:18:18;1.53;;;1.43;;
4214;SDS011;2121;48.062;7.850;2024-03-29T04:20:43;1.50;;;1.40;;
4214;SDS011;2121;48.062;7.850;2024-03-29T04:23:09;1.50;;;1.40;;
4214;SDS011;2121;48.062;7.850;2024-03-29T04:25:34;1.60;;;1.50;;
4214;SDS011;2121;48.062;7.850;2024-03-29T04:28:00;1.90;;;1.80;;
4214;SDS011;2121;48.062;7.850;2024-03-29T04:30:26;1.90;;;1.70;;
4214;SDS011;2121;48.062;7.850;2024-03-29T04:32:52;2.10;;;1.37;;
4214;SDS011;2121;48.062;7.850;2024-03-29T04:35:17;1.77;;;1.60;;
4214;SDS011;2121;48.062;7.850;2024-03-29T04:37:43;2.10;;;1.53;;
4214;SDS011;2121;48.062;7.850;2024-03-29T04:40:09;2.17;;;1.97;;
4214;SDS011;2121;48.062;7.850;2024-03-29T04:42:35;4.63;;;1.67;;
4214;SDS011;2121;48.062;7.850;2024-03-29T04:45:01;3.23;;;1.70;;
4214;SDS011;2121;48.062;7.850;2024-03-29T04:47:29;3.00;;;2.23;;
4214;SDS011;2121;48.062;7.850;2024-03-29T04:49:54;2.13;;;1.93;;
4214;SDS011;2121;48.062;7.850;2024-03-29T04:52:20;2.80;;;1.70;;
4214;SDS011;2121;48.062;7.850;2024-03-29T04:54:47;3.10;;;1.90;;
4214;SDS011;2121;48.062;7.850;2024-03-29T04:57:13;4.40;;;1.73;;
4214;SDS011;2121;48.062;7.850;2024-03-29T04:59:38;1.60;;;1.50;;
4214;SDS011;2121;48.062;7.850;2024-03-29T05:02:04;1.80;;;1.70;;
4214;SDS011;2121;48.062;7.850;2024-03-29T05:04:30;1.80;;;1.70;;
4214;SDS011;2121;48.062;7.850;2024-03-29T05:06:56;1.37;;;1.27;;
4214;SDS011;2121;48.062;7.850;2024-03-29T05:09:23;1.60;;;1.50;;
4214;SDS011;2121;48.062;7.850;2024-03-29T05:11:50;3.50;;;2.80;;
4214;SDS011;2121;48.062;7.850;2024-03-29T05:14:17;1.50;;;1.40;;
4214;SDS011;2121;48.062;7.850;2024-03-29T05:16:45;2.10;;;2.00;;
4214;SDS011;2121;48.062;7.850;2024-03-29T05:19:12;3.97;;;2.40;;
4214;SDS011;2121;48.062;7.850;2024-03-29T05:21:39;1.80;;;1.70;;
4214;SDS011;2121;48.062;7.850;2024-03-29T05:24:05;2.70;;;1.73;;
4214;SDS011;2121;48.062;7.850;2024-03-29T05:26:31;3.83;;;2.07;;
4214;SDS011;2121;48.062;7.850;2024-03-29T05:28:57;1.60;;;1.50;;
4214;SDS011;2121;48.062;7.850;2024-03-29T05:31:23;2.83;;;2.23;;
4214;SDS011;2121;48.062;7.850;2024-03-29T05:33:49;5.43;;;1.90;;
4214;SDS011;2121;48.062;7.850;2024-03-29T05:36:15;2.00;;;1.90;;
4214;SDS011;2121;48.062;7.850;2024-03-29T05:38:41;2.40;;;1.43;;
4214;SDS011;2121;48.062;7.850;2024-03-29T05:41:07;1.87;;;1.67;;
4214;SDS011;2121;48.062;7.850;2024-03-29T05:43:33;1.70;;;1.60;;
4214;SDS011;2121;48.062;7.850;2024-03-29T05:45:58;3.13;;;1.60;;
4214;SDS011;2121;48.062;7.850;2024-03-29T05:48:27;1.87;;;1.57;;
4214;SDS011;2121;48.062;7.850;2024-03-29T05:50:54;1.30;;;1.20;;
4214;SDS011;2121;48.062;7.850;2024-03-29T05:53:20;4.73;;;1.70;;
4214;SDS011;2121;48.062;7.850;2024-03-29T05:55:45;1.90;;;1.80;;
4214;SDS011;2121;48.062;7.850;2024-03-29T05:58:11;2.10;;;2.00;;
4214;SDS011;2121;48.062;7.850;2024-03-29T06:00:42;7.17;;;1.73;;
4214;SDS011;2121;48.062;7.850;2024-03-29T06:03:08;1.93;;;1.83;;
4214;SDS011;2121;48.062;7.850;2024-03-29T06:05:34;1.97;;;1.87;;
4214;SDS011;2121;48.062;7.850;2024-03-29T06:08:00;5.87;;;1.97;;
4214;SDS011;2121;48.062;7.850;2024-03-29T06:10:25;1.60;;;1.50;;
4214;SDS011;2121;48.062;7.850;2024-03-29T06:12:51;2.03;;;1.90;;
4214;SDS011;2121;48.062;7.850;2024-03-29T06:15:17;1.80;;;1.70;;
4214;SDS011;2121;48.062;7.850;2024-03-29T06:18:01;2.20;;;2.00;;
4214;SDS011;2121;48.062;7.850;2024-03-29T06:20:27;3.27;;;2.43;;
4214;SDS011;2121;48.062;7.850;2024-03-29T06:22:53;3.53;;;2.67;;
4214;SDS011;2121;48.062;7.850;2024-03-29T06:25:18;3.30;;;3.10;;
4214;SDS011;2121;48.062;7.850;2024-03-29T06:27:44;4.90;;;3.80;;
4214;SDS011;2121;48.062;7.850;2024-03-29T06:30:13;3.53;;;2.60;;
4214;SDS011;2121;48.062;7.850;2024-03-29T06:32:40;2.50;;;2.30;;
4214;SDS011;2121;48.062;7.850;2024-03-29T06:35:06;2.67;;;2.20;;
4214;SDS011;2121;48.062;7.850;2024-03-29T06:37:32;3.57;;;2.30;;
4214;SDS011;2121;48.062;7.850;2024-03-29T06:39:58;2.33;;;1.90;;
4214;SDS011;2121;48.062;7.850;2024-03-29T06:42:24;2.13;;;1.80;;
4214;SDS011;2121;48.062;7.850;2024-03-29T06:44:49;2.30;;;2.10;;
4214;SDS011;2121;48.062;7.850;2024-03-29T06:47:16;3.10;;;2.30;;
4214;SDS011;2121;48.062;7.850;2024-03-29T06:49:42;2.97;;;1.90;;
4214;SDS011;2121;48.062;7.850;2024-03-29T06:52:08;1.73;;;1.57;;
4214;SDS011;2121;48.062;7.850;2024-03-29T06:54:34;2.23;;;2.13;;
4214;SDS011;2121;48.062;7.850;2024-03-29T06:57:00;3.60;;;2.60;;
4214;SDS011;2121;48.062;7.850;2024-03-29T06:59:26;3.13;;;2.20;;
4214;SDS011;2121;48.062;7.850;2024-03-29T07:01:53;2.30;;;2.10;;
4214;SDS011;2121;48.062;7.850;2024-03-29T07:04:19;5.93;;;2.27;;
4214;SDS011;2121;48.062;7.850;2024-03-29T07:06:49;3.23;;;2.17;;
4214;SDS011;2121;48.062;7.850;2024-03-29T07:09:21;3.23;;;2.60;;
4214;SDS011;2121;48.062;7.850;2024-03-29T07:11:48;3.10;;;2.53;;
4214;SDS011;2121;48.062;7.850;2024-03-29T07:14:16;3.27;;;3.07;;
4214;SDS011;2121;48.062;7.850;2024-03-29T07:16:43;4.07;;;3.67;;
4214;SDS011;2121;48.062;7.850;2024-03-29T07:19:10;6.33;;;3.30;;
4214;SDS011;2121;48.062;7.850;2024-03-29T07:21:41;4.60;;;3.23;;
4214;SDS011;2121;48.062;7.850;2024-03-29T07:24:08;3.80;;;2.70;;
4214;SDS011;2121;48.062;7.850;2024-03-29T07:26:34;3.87;;;2.20;;
4214;SDS011;2121;48.062;7.850;2024-03-29T07:29:00;3.37;;;2.33;;
4214;SDS011;2121;48.062;7.850;2024-03-29T07:31:26;3.63;;;3.30;;
4214;SDS011;2121;48.062;7.850;2024-03-29T07:33:54;3.10;;;2.47;;
4214;SDS011;2121;48.062;7.850;2024-03-29T07:36:20;6.60;;;4.27;;
4214;SDS011;2121;48.062;7.850;2024-03-29T07:38:48;8.63;;;3.03;;
4214;SDS011;2121;48.062;7.850;2024-03-29T07:41:13;5.27;;;2.80;;
4214;SDS011;2121;48.062;7.850;2024-03-29T07:43:40;3.00;;;2.70;;
4214;SDS011;2121;48.062;7.850;2024-03-29T07:46:07;6.47;;;3.80;;
4214;SDS011;2121;48.062;7.850;2024-03-29T07:48:34;4.20;;;3.27;;
4214;SDS011;2121;48.062;7.850;2024-03-29T07:51:00;5.50;;;3.50;;
4214;SDS011;2121;48.062;7.850;2024-03-29T07:53:25;3.27;;;2.97;;
4214;SDS011;2121;48.062;7.850;2024-03-29T07:55:51;5.37;;;4.30;;
4214;SDS011;2121;48.062;7.850;2024-03-29T07:58:17;4.40;;;4.00;;
4214;SDS011;2121;48.062;7.850;2024-03-29T08:00:43;5.23;;;4.10;;
4214;SDS011;2121;48.062;7.850;2024-03-29T08:03:08;4.77;;;3.33;;
4214;SDS011;2121;48.062;7.850;2024-03-29T08:05:34;3.83;;;3.30;;
4214;SDS011;2121;48.062;7.850;2024-03-29T08:08:00;3.60;;;3.30;;
4214;SDS011;2121;48.062;7.850;2024-03-29T08:10:26;3.50;;;3.20;;
4214;SDS011;2121;48.062;7.850;2024-03-29T08:12:51;4.90;;;3.00;;
4214;SDS011;2121;48.062;7.850;2024-03-29T08:15:17;3.53;;;2.67;;
4214;SDS011;2121;48.062;7.850;2024-03-29T08:17:43;2.57;;;2.37;;
4214;SDS011;2121;48.062;7.850;2024-03-29T08:20:12;4.37;;;2.40;;
4214;SDS011;2121;48.062;7.850;2024-03-29T08:22:38;2.53;;;2.33;;
4214;SDS011;2121;48.062;7.850;2024-03-29T08:25:04;4.30;;;2.90;;
4214;SDS011;2121;48.062;7.850;2024-03-29T08:27:30;3.10;;;2.80;;
4214;SDS011;2121;48.062;7.850;2024-03-29T08:29:56;3.70;;;2.27;;
4214;SDS011;2121;48.062;7.850;2024-03-29T08:32:21;3.17;;;2.20;;
4214;SDS011;2121;48.062;7.850;2024-03-29T08:34:47;1.97;;;1.87;;
4214;SDS011;2121;48.062;7.850;2024-03-29T08:37:13;6.13;;;1.80;;
4214;SDS011;2121;48.062;7.850;2024-03-29T08:39:38;1.47;;;1.37;;
4214;SDS011;2121;48.062;7.850;2024-03-29T08:42:04;1.83;;;1.73;;
4214;SDS011;2121;48.062;7.850;2024-03-29T08:44:31;2.53;;;1.40;;
4214;SDS011;2121;48.062;7.850;2024-03-29T08:46:58;2.43;;;1.70;;
4214;SDS011;2121;48.062;7.850;2024-03-29T08:49:26;3.03;;;1.50;;
4214;SDS011;2121;48.062;7.850;2024-03-29T08:51:53;3.47;;;1.20;;
4214;SDS011;2121;48.062;7.850;2024-03-29T08:54:18;2.93;;;1.50;;
4214;SDS011;2121;48.062;7.850;2024-03-29T08:56:44;3.67;;;1.80;;
4214;SDS011;2121;48.062;7.850;2024-03-29T08:59:10;1.70;;;1.60;;
4214;SDS011;2121;48.062;7.850;2024-03-29T09:01:36;1.70;;;1.60;;
4214;SDS011;2121;48.062;7.850;2024-03-29T09:04:08;3.30;;;1.70;;
4214;SDS011;2121;48.062;7.850;2024-03-29T09:06:36;2.33;;;2.13;;
4214;SDS011;2121;48.062;7.850;2024-03-29T09:09:03;2.17;;;1.97;;
4214;SDS011;2121;48.062;7.850;2024-03-29T09:11:31;4.43;;;2.17;;
4214;SDS011;2121;48.062;7.850;2024-03-29T09:13:56;1.70;;;1.60;;
4214;SDS011;2121;48.062;7.850;2024-03-29T09:16:24;1.73;;;1.63;;
4214;SDS011;2121;48.062;7.850;2024-03-29T09:18:50;7.30;;;2.57;;
4214;SDS011;2121;48.062;7.850;2024-03-29T09:21:17;3.07;;;2.77;;
4214;SDS011;2121;48.062;7.850;2024-03-29T09:23:45;16.73;;;10.17;;
4214;SDS011;2121;48.062;7.850;2024-03-29T09:26:11;13.73;;;7.93;;
4214;SDS011;2121;48.062;7.850;2024-03-29T09:28:39;19.73;;;12.13;;
4214;SDS011;2121;48.062;7.850;2024-03-29T09:31:05;4.70;;;3.80;;
4214;SDS011;2121;48.062;7.850;2024-03-29T09:33:31;3.60;;;2.80;;
4214;SDS011;2121;48.062;7.850;2024-03-29T09:35:57;3.03;;;2.00;;
4214;SDS011;2121;48.062;7.850;2024-03-29T09:38:27;2.53;;;2.30;;
4214;SDS011;2121;48.062;7.850;2024-03-29T09:41:10;3.90;;;3.60;;
4214;SDS011;2121;48.062;7.850;2024-03-29T09:43:44;4.60;;;4.20;;
4214;SDS011;2121;48.062;7.850;2024-03-29T09:46:15;3.20;;;3.00;;
4214;SDS011;2121;48.062;7.850;2024-03-29T09:48:42;2.97;;;2.67;;
4214;SDS011;2121;48.062;7.850;2024-03-29T09:51:12;5.00;;;3.57;;
4214;SDS011;2121;48.062;7.850;2024-03-29T09:53:42;3.23;;;2.93;;
4214;SDS011;2121;48.062;7.850;2024-03-29T09:56:09;3.00;;;2.37;;
4214;SDS011;2121;48.062;7.850;2024-03-29T09:58:35;2.73;;;2.47;;
4214;SDS011;2121;48.062;7.850;2024-03-29T10:01:03;3.50;;;3.20;;
4214;SDS011;2121;48.062;7.850;2024-03-29T10:03:40;5.87;;;3.87;;
4214;SDS011;2121;48.062;7.850;2024-03-29T10:06:07;4.10;;;3.80;;
4214;SDS011;2121;48.062;7.850;2024-03-29T10:08:33;5.70;;;3.27;;
4214;SDS011;2121;48.062;7.850;2024-03-29T10:11:00;4.23;;;2.83;;
4214;SDS011;2121;48.062;7.850;2024-03-29T10:13:28;2.23;;;2.13;;
4214;SDS011;2121;48.062;7.850;2024-03-29T10:15:54;3.90;;;3.17;;
4214;SDS011;2121;48.062;7.850;2024-03-29T10:18:25;2.37;;;2.20;;
4214;SDS011;2121;48.062;7.850;2024-03-29T10:21:07;2.87;;;2.67;;
4214;SDS011;2121;48.062;7.850;2024-03-29T10:23:35;2.03;;;1.93;;
4214;SDS011;2121;48.062;7.850;2024-03-29T10:26:01;2.20;;;2.10;;
4214;SDS011;2121;48.062;7.850;2024-03-29T10:28:32;2.10;;;1.73;;
4214;SDS011;2121;48.062;7.850;2024-03-29T10:31:02;2.10;;;2.00;;
4214;SDS011;2121;48.062;7.850;2024-03-29T10:33:34;4.00;;;3.10;;
4214;SDS011;2121;48.062;7.850;2024-03-29T10:36:00;2.70;;;2.50;;
4214;SDS011;2121;48.062;7.850;2024-03-29T10:38:30;2.07;;;1.97;;
4214;SDS011;2121;48.062;7.850;2024-03-29T10:40:56;3.10;;;2.00;;
4214;SDS011;2121;48.062;7.850;2024-03-29T10:43:22;3.00;;;2.17;;
4214;SDS011;2121;48.062;7.850;2024-03-29T10:45:49;1.87;;;1.77;;
4214;SDS011;2121;48.062;7.850;2024-03-29T10:48:17;1.70;;;1.60;;
4214;SDS011;2121;48.062;7.850;2024-03-29T10:50:47;3.27;;;1.70;;
4214;SDS011;2121;48.062;7.850;2024-03-29T10:53:16;6.30;;;1.43;;
4214;SDS011;2121;48.062;7.850;2024-03-29T10:55:42;4.93;;;1.17;;
4214;SDS011;2121;48.062;7.850;2024-03-29T10:58:11;1.37;;;1.10;;
4214;SDS011;2121;48.062;7.850;2024-03-29T11:00:41;1.77;;;1.63;;
4214;SDS011;2121;48.062;7.850;2024-03-29T11:03:13;1.47;;;1.27;;
4214;SDS011;2121;48.062;7.850;2024-03-29T11:05:44;1.40;;;1.30;;
4214;SDS011;2121;48.062;7.850;2024-03-29T11:08:19;1.20;;;1.20;;
4214;SDS011;2121;48.062;7.850;2024-03-29T11:10:49;1.23;;;1.20;;
4214;SDS011;2121;48.062;7.850;2024-03-29T11:13:19;3.67;;;1.07;;
4214;SDS011;2121;48.062;7.850;2024-03-29T11:16:02;1.50;;;1.40;;
4214;SDS011;2121;48.062;7.850;2024-03-29T11:18:28;1.40;;;1.33;;
4214;SDS011;2121;48.062;7.850;2024-03-29T11:20:56;5.17;;;1.53;;
4214;SDS011;2121;48.062;7.850;2024-03-29T11:23:24;2.20;;;1.40;;
4214;SDS011;2121;48.062;7.850;2024-03-29T11:25:52;3.80;;;1.50;;
4214;SDS011;2121;48.062;7.850;2024-03-29T11:28:34;3.97;;;2.10;;
4214;SDS011;2121;48.062;7.850;2024-03-29T11:31:05;2.10;;;1.50;;
4214;SDS011;2121;48.062;7.850;2024-03-29T11:33:35;1.10;;;1.10;;
4214;SDS011;2121;48.062;7.850;2024-03-29T11:36:24;2.70;;;1.33;;
4214;SDS011;2121;48.062;7.850;2024-03-29T11:38:54;1.37;;;1.10;;
4214;SDS011;2121;48.062;7.850;2024-03-29T11:41:23;1.40;;;1.30;;
4214;SDS011;2121;48.062;7.850;2024-03-29T11:43:52;1.43;;;1.37;;
4214;SDS011;2121;48.062;7.850;2024-03-29T11:46:21;3.03;;;1.30;;
4214;SDS011;2121;48.062;7.850;2024-03-29T11:48:49;4.80;;;1.40;;
4214;SDS011;2121;48.062;7.850;2024-03-29T11:51:17;1.73;;;1.63;;
4214;SDS011;2121;48.062;7.850;2024-03-29T11:53:49;4.50;;;1.87;;
4214;SDS011;2121;48.062;7.850;2024-03-29T11:56:18;2.20;;;1.30;;
4214;SDS011;2121;48.062;7.850;2024-03-29T11:58:44;3.57;;;1.80;;
4214;SDS011;2121;48.062;7.850;2024-03-29T12:01:11;3.80;;;1.63;;
4214;SDS011;2121;48.062;7.850;2024-03-29T12:03:40;1.93;;;1.83;;
4214;SDS011;2121;48.062;7.850;2024-03-29T12:06:07;4.40;;;1.50;;
4214;SDS011;2121;48.062;7.850;2024-03-29T12:08:40;1.90;;;1.33;;
4214;SDS011;2121;48.062;7.850;2024-03-29T12:11:07;1.10;;;1.10;;
4214;SDS011;2121;48.062;7.850;2024-03-29T12:13:33;2.60;;;1.50;;
4214;SDS011;2121;48.062;7.850;2024-03-29T12:16:00;4.03;;;1.50;;
4214;SDS011;2121;48.062;7.850;2024-03-29T12:18:26;2.20;;;1.63;;
4214;SDS011;2121;48.062;7.850;2024-03-29T12:20:58;3.37;;;1.30;;
4214;SDS011;2121;48.062;7.850;2024-03-29T12:23:24;3.60;;;1.30;;
4214;SDS011;2121;48.062;7.850;2024-03-29T12:25:50;3.93;;;1.73;;
4214;SDS011;2121;48.062;7.850;2024-03-29T12:28:22;3.60;;;1.40;;
4214;SDS011;2121;48.062;7.850;2024-03-29T12:30:48;7.50;;;3.30;;
4214;SDS011;2121;48.062;7.850;2024-03-29T12:33:15;11.53;;;3.03;;
4214;SDS011;2121;48.062;7.850;2024-03-29T12:35:49;3.80;;;2.00;;
4214;SDS011;2121;48.062;7.850;2024-03-29T12:38:20;3.47;;;1.80;;
4214;SDS011;2121;48.062;7.850;2024-03-29T12:40:48;1.50;;;1.40;;
4214;SDS011;2121;48.062;7.850;2024-03-29T12:43:21;4.00;;;2.30;;
4214;SDS011;2121;48.062;7.850;2024-03-29T12:45:48;1.90;;;1.43;;
4214;SDS011;2121;48.062;7.850;2024-03-29T12:48:20;2.30;;;1.80;;
4214;SDS011;2121;48.062;7.850;2024-03-29T12:50:48;4.83;;;2.57;;
4214;SDS011;2121;48.062;7.850;2024-03-29T12:53:15;5.63;;;4.10;;
4214;SDS011;2121;48.062;7.850;2024-03-29T12:55:42;3.73;;;1.90;;
4214;SDS011;2121;48.062;7.850;2024-03-29T12:58:11;4.33;;;2.43;;
4214;SDS011;2121;48.062;7.850;2024-03-29T13:00:38;8.50;;;1.80;;
4214;SDS011;2121;48.062;7.850;2024-03-29T13:03:05;8.53;;;1.97;;
4214;SDS011;2121;48.062;7.850;2024-03-29T13:05:32;2.60;;;1.30;;
4214;SDS011;2121;48.062;7.850;2024-03-29T13:08:02;3.43;;;1.67;;
4214;SDS011;2121;48.062;7.850;2024-03-29T13:10:40;1.40;;;1.30;;
4214;SDS011;2121;48.062;7.850;2024-03-29T13:13:07;1.63;;;1.23;;
4214;SDS011;2121;48.062;7.850;2024-03-29T13:15:34;2.80;;;1.70;;
4214;SDS011;2121;48.062;7.850;2024-03-29T13:18:02;2.20;;;2.10;;
4214;SDS011;2121;48.062;7.850;2024-03-29T13:20:29;4.20;;;2.50;;
4214;SDS011;2121;48.062;7.850;2024-03-29T13:22:57;5.23;;;1.80;;
4214;SDS011;2121;48.062;7.850;2024-03-29T13:25:23;1.97;;;1.60;;
4214;SDS011;2121;48.062;7.850;2024-03-29T13:27:50;2.40;;;1.97;;
4214;SDS011;2121;48.062;7.850;2024-03-29T13:30:21;4.10;;;1.40;;
4214;SDS011;2121;48.062;7.850;2024-03-29T13:32:50;1.30;;;1.20;;
4214;SDS011;2121;48.062;7.850;2024-03-29T13:35:17;2.23;;;1.70;;
4214;SDS011;2121;48.062;7.850;2024-03-29T13:37:46;1.20;;;1.20;;
4214;SDS011;2121;48.062;7.850;2024-03-29T13:40:14;3.00;;;1.30;;
4214;SDS011;2121;48.062;7.850;2024-03-29T13:42:42;1.53;;;1.10;;
4214;SDS011;2121;48.062;7.850;2024-03-29T13:45:09;4.67;;;1.53;;
4214;SDS011;2121;48.062;7.850;2024-03-29T13:47:40;2.50;;;1.30;;
4214;SDS011;2121;48.062;7.850;2024-03-29T13:50:08;2.08;;;1.20;;
4214;SDS011;2121;48.062;7.850;2024-03-29T13:52:35;1.95;;;1.25;;
4214;SDS011;2121;48.062;7.850;2024-03-29T13:55:01;1.23;;;1.10;;
4214;SDS011;2121;48.062;7.850;2024-03-29T13:57:29;1.33;;;1.23;;
4214;SDS011;2121;48.062;7.850;2024-03-29T13:59:56;1.45;;;1.35;;
4214;SDS011;2121;48.062;7.850;2024-03-29T14:02:23;1.25;;;1.00;;
4214;SDS011;2121;48.062;7.850;2024-03-29T14:04:52;1.25;;;1.00;;
4214;SDS011;2121;48.062;7.850;2024-03-29T14:07:18;2.35;;;1.58;;
4214;SDS011;2121;48.062;7.850;2024-03-29T14:09:45;2.65;;;1.75;;
4214;SDS011;2121;48.062;7.850;2024-03-29T14:12:11;1.08;;;1.00;;
4214;SDS011;2121;48.062;7.850;2024-03-29T14:14:38;2.72;;;2.10;;
4214;SDS011;2121;48.062;7.850;2024-03-29T14:17:04;1.90;;;1.58;;
4214;SDS011;2121;48.062;7.850;2024-03-29T14:19:32;6.10;;;3.53;;
4214;SDS011;2121;48.062;7.850;2024-03-29T14:21:59;1.98;;;1.10;;
4214;SDS011;2121;48.062;7.850;2024-03-29T14:24:28;1.48;;;1.38;;
4214;SDS011;2121;48.062;7.850;2024-03-29T14:26:55;1.58;;;1.20;;
4214;SDS011;2121;48.062;7.850;2024-03-29T14:29:22;1.15;;;1.15;;
4214;SDS011;2121;48.062;7.850;2024-03-29T14:31:48;1.35;;;1.10;;
4214;SDS011;2121;48.062;7.850;2024-03-29T14:34:15;2.75;;;1.10;;
4214;SDS011;2121;48.062;7.850;2024-03-29T14:36:43;1.10;;;1.10;;
4214;SDS011;2121;48.062;7.850;2024-03-29T14:39:10;2.77;;;1.70;;
4214;SDS011;2121;48.062;7.850;2024-03-29T14:41:38;1.93;;;0.90;;
4214;SDS011;2121;48.062;7.850;2024-03-29T14:44:04;2.17;;;1.60;;
4214;SDS011;2121;48.062;7.850;2024-03-29T14:46:34;3.73;;;1.37;;
4214;SDS011;2121;48.062;7.850;2024-03-29T14:49:00;1.20;;;1.10;;
4214;SDS011;2121;48.062;7.850;2024-03-29T14:51:31;1.63;;;1.10;;
4214;SDS011;2121;48.062;7.850;2024-03-29T14:53:57;3.13;;;1.20;;
4214;SDS011;2121;48.062;7.850;2024-03-29T14:56:23;1.70;;;1.10;;
4214;SDS011;2121;48.062;7.850;2024-03-29T14:58:48;2.30;;;1.33;;
4214;SDS011;2121;48.062;7.850;2024-03-29T15:01:14;2.00;;;1.10;;
4214;SDS011;2121;48.062;7.850;2024-03-29T15:03:40;1.43;;;1.20;;
4214;SDS011;2121;48.062;7.850;2024-03-29T15:06:05;1.77;;;1.30;;
4214;SDS011;2121;48.062;7.850;2024-03-29T15:08:31;2.77;;;1.43;;
4214;SDS011;2121;48.062;7.850;2024-03-29T15:10:58;1.10;;;1.00;;
4214;SDS011;2121;48.062;7.850;2024-03-29T15:13:25;4.03;;;1.20;;
4214;SDS011;2121;48.062;7.850;2024-03-29T15:15:57;1.33;;;1.23;;
4214;SDS011;2121;48.062;7.850;2024-03-29T15:18:25;1.60;;;1.50;;